Hoppa till innehåll

METAR väder och rapporter - ESGG

Nedan listas information från vald flygplats. Andra METARs finns längre ned på sidan. Kontakta oss om någon saknas eller skriv in egen ICAO-kod.

Andra intressanta METARs

Klicka på önskad rubrik nedan för att visa nuvarande väder för den platsen.

Avstånd från stationen: NO 27kmESGG - Göteborg (Landvetter)
Uppdaterad: 2021-10-24 08:50
Ej aktuell
 
2021/10/24 06:50

  Visa detaljer för Göteborg (Landvetter)
Avstånd från stationen: N 28kmESGP - Göteborg (Säve)
Uppdaterad: 2021-10-24 10:12
 
unable to load ESGP data RC=404 Not Found
unable to load ESGP data RC=404 Not Found
  Visa detaljer för Göteborg (Säve)
Avstånd från stationen: NO 419kmESSA - Stockholm (Arlanda)
Uppdaterad: 2021-10-24 08:50
Ej aktuell
 Vind från S
Vind: S 15 km/h
Temperatur: 3°C
Vindavkylning: -1°C
Daggpunkt: 1°C
Luftfuktighet: 87%
Barometer: 1021 hPa
Moln: Övervägande molnigt
Sikt: 10 km
Molninformation: Delvis molnigt 1219 m
Övervägande molnigt 1524 m
2021/10/24 06:50 ESSA 240650Z 17008KT 9999 SCT040 BKN050 03/01 Q1021 NOSIG
Övervägande molnigt
Övervägande molnigt
  Visa detaljer för Stockholm (Arlanda)
Avstånd från stationen: ONO 404kmESSB - Stockholm (Bromma)
Uppdaterad: 2021-10-24 08:50
Ej aktuell
 
2021/10/24 06:50

  Visa detaljer för Stockholm (Bromma)
Avstånd från stationen: ONO 323kmESKN - Stockholm (Skavsta)
Uppdaterad: 2021-10-24 09:20
 Vind från SSV
Vind: SSV 15 km/h
Temperatur: 5°C
Vindavkylning: 2°C
Daggpunkt: 1°C
Luftfuktighet: 76%
Barometer: 1022 hPa
Moln: Övervägande molnigt
Sikt: 10 km
Molninformation: Övervägande molnigt 1341 m
2021/10/24 07:20 ESKN 240720Z 20008KT 9999 BKN044 05/01 Q1022
Övervägande molnigt
Övervägande molnigt
  Visa detaljer för Stockholm (Skavsta)
Avstånd från stationen: SSO 238kmESMS - Malmö flygplats (Sturup)
Uppdaterad: 2021-10-24 09:20
 Vind från S
Vind: S 9 km/h
Temperatur: 7°C
Vindavkylning: 6°C
Daggpunkt: 6°C
Luftfuktighet: 93%
Barometer: 1026 hPa
Summering: Klart
Sikt: mer än 10 km
2021/10/24 07:20 ESMS 240720Z 19005KT CAVOK 07/06 Q1026
Klart
Klart
  Visa detaljer för Malmö flygplats (Sturup)
Avstånd från stationen: O 382kmESSV - Visby flygplats
Uppdaterad: 2021-10-24 08:50
Ej aktuell
 
2021/10/24 06:50

  Visa detaljer för Visby flygplats
Avstånd från stationen: NNO 92kmESGT - Trollhättan
Uppdaterad: 2021-10-24 08:50
Ej aktuell
 
2021/10/24 06:50

  Visa detaljer för Trollhättan
Avstånd från stationen: ONO 129kmESGJ - Jönköpings flygplats
Uppdaterad: 2021-10-24 08:50
Ej aktuell
 
2021/10/24 06:50

  Visa detaljer för Jönköpings flygplats
Avstånd från stationen: NNO 229kmESOK - Karlstad
Uppdaterad: 2021-10-24 08:50
Ej aktuell
 
2021/10/24 06:50

  Visa detaljer för Karlstad
Avstånd från stationen: N 643kmESNZ - Östersund (Frösön)
Uppdaterad: 2021-10-24 08:50
Ej aktuell
 
2021/10/24 06:50

  Visa detaljer för Östersund (Frösön)
Avstånd från stationen: SSO 216kmEKCH - Köpenhamn (Kastrup)
Uppdaterad: 2021-10-24 08:50
Ej aktuell
 
2021/10/24 06:50

  Visa detaljer för Köpenhamn (Kastrup)
Avstånd från stationen: SV 263kmEKBI - Billund Airport
Uppdaterad: 2021-10-24 08:50
Ej aktuell
 
2021/10/24 06:50

  Visa detaljer för Billund Airport
Avstånd från stationen: N 302kmENGM - Oslo (Gardermoen)
Uppdaterad: 2021-10-24 09:20
 Vind från SO
Vind: SO 6 km/h
Temperatur: 5°C
Daggpunkt: 4°C
Luftfuktighet: 93%
Barometer: 1016 hPa
Moln: Övervägande molnigt
Sikt: 10 km
Molninformation: Övervägande molnigt 305 m
2021/10/24 07:20 ENGM 240720Z 14003KT 100V190 9999 BKN010 05/04 Q1016 TEMPO FEW010 BKN040
Övervägande molnigt
Övervägande molnigt
  Visa detaljer för Oslo (Gardermoen)
Avstånd från stationen: NO 540kmEFMA - Mariehamn / Åland
Uppdaterad: 2021-10-24 09:20
 Vind från SSV
Vind: SSV 11 km/h
Temperatur: 7°C
Vindavkylning: 5°C
Daggpunkt: 2°C
Luftfuktighet: 71%
Barometer: 1021 hPa
Summering: Klart
Sikt: mer än 10 km
2021/10/24 07:20 EFMA 240720Z AUTO 21006KT CAVOK 07/02 Q1021
Klart
Klart
  Visa detaljer för Mariehamn / Åland
Avstånd från stationen: S 558kmEDDT - Berlin (Tegel), Germany
Uppdaterad: 2021-10-24 10:12
 
unable to load EDDT data RC=404 Not Found
unable to load EDDT data RC=404 Not Found
  Visa detaljer för Berlin (Tegel), Germany
Avstånd från stationen: SV 737kmEHAM - Amsterdam (Schiphol)
Uppdaterad: 2021-10-24 09:25
 Vind från SO
Vind: SO 9 km/h
Temperatur: 6°C
Vindavkylning: 4°C
Daggpunkt: 4°C
Luftfuktighet: 87%
Barometer: 1023 hPa
Summering: Klart
Sikt: mer än 10 km
2021/10/24 07:25 EHAM 240725Z 14005KT 110V180 CAVOK 06/04 Q1023 NOSIG
Klart
Klart
  Visa detaljer för Amsterdam (Schiphol)
Avstånd från stationen: ONO 808kmEFHK - Helsingfors (Vantaa)
Uppdaterad: 2021-10-24 09:20
 Vind från V
Vind: V 6 km/h
Temperatur: -1°C
Daggpunkt: -3°C
Luftfuktighet: 86%
Barometer: 1023 hPa
Summering: Klart
Sikt: mer än 10 km
2021/10/24 07:20 EFHK 240720Z 26003KT CAVOK M01/M03 Q1023 NOSIG
Klart
Klart
  Visa detaljer för Helsingfors (Vantaa)
Avstånd från stationen: SSV 537kmEDDW - Bremen
Uppdaterad: 2021-10-24 09:20
 Vind från SO
Vind: SO 7 km/h
Temperatur: 4°C
Vindavkylning: 2°C
Daggpunkt: 2°C
Luftfuktighet: 87%
Barometer: 1027 hPa
Summering: Klart
Sikt: mer än 10 km
2021/10/24 07:20 EDDW 240720Z 13004KT 100V170 CAVOK 04/02 Q1027 NOSIG
Klart
Klart
  Visa detaljer för Bremen
Avstånd från stationen: SSV 861kmEDDF - Frankfurt am Main
Uppdaterad: 2021-10-24 09:20
 Vind från NO
Vind: NO 15 km/h
Temperatur: 4°C
Vindavkylning: 1°C
Daggpunkt: 2°C
Luftfuktighet: 87%
Barometer: 1027 hPa
Summering: Klart
Sikt: mer än 10 km
2021/10/24 07:20 EDDF 240720Z 05008KT CAVOK 04/02 Q1027 NOSIG
Klart
Klart
  Visa detaljer för Frankfurt am Main
Avstånd från stationen: SV 880kmEBBR - Bryssel international
Uppdaterad: 2021-10-24 09:20
 Vind från SSO
Vind: SSO 13 km/h
Temperatur: 7°C
Vindavkylning: 5°C
Daggpunkt: 3°C
Luftfuktighet: 76%
Barometer: 1023 hPa
Summering: Klart
Sikt: mer än 10 km
2021/10/24 07:20 EBBR 240720Z 16007KT CAVOK 07/03 Q1023 NOSIG
Klart
Klart
  Visa detaljer för Bryssel international
Avstånd från stationen: SV 738kmEHAM - Amsterdam (Schiphol)
Uppdaterad: 2021-10-24 09:25
 Vind från SO
Vind: SO 9 km/h
Temperatur: 6°C
Vindavkylning: 4°C
Daggpunkt: 4°C
Luftfuktighet: 87%
Barometer: 1023 hPa
Summering: Klart
Sikt: mer än 10 km
2021/10/24 07:25 EHAM 240725Z 14005KT 110V180 CAVOK 06/04 Q1023 NOSIG
Klart
Klart
  Visa detaljer för Amsterdam (Schiphol)
Avstånd från stationen: SV 1044kmEGLL - London (Heathrow)
Uppdaterad: 2021-10-24 09:20
 Vind från S
Vind: S 9 km/h
Temperatur: 12°C
Daggpunkt: 7°C
Luftfuktighet: 72%
Barometer: 1019 hPa
Moln: Genommulet
Sikt: 10 km
Molninformation: Genommulet 1097 m
2021/10/24 07:20 EGLL 240720Z AUTO 19005KT 160V240 9999 OVC036 12/07 Q1019 NOSIG
Genommulet
Genommulet
  Visa detaljer för London (Heathrow)
Avstånd från stationen: SV 1132kmLFPG - Paris (Charles de Gaulle)
Uppdaterad: 2021-10-24 09:30
 Vind från SO
Vind: SO 15 km/h
Temperatur: 6°C
Vindavkylning: 3°C
Daggpunkt: 3°C
Luftfuktighet: 81%
Barometer: 1023 hPa
Summering: Klart
Sikt: mer än 10 km
2021/10/24 07:30 LFPG 240730Z 13008KT CAVOK 06/03 Q1023 NOSIG
Klart
Klart
  Visa detaljer för Paris (Charles de Gaulle)
Avstånd från stationen: SSV 1142kmLSZH - Zürich Airport
Uppdaterad: 2021-10-24 09:20
 Vind från varierande
Vind: varierande 2 km/h
Temperatur: 0°C
Daggpunkt: 0°C
Luftfuktighet: 100%
Barometer: 1027 hPa
Summering: Patches of Fog
Moln: Delvis molnigt
Sikt: 4 km
Molninformation: Delvis molnigt 61 m
2021/10/24 07:20 LSZH 240720Z VRB01KT 3500 R14/P2000N R16/P2000N R28/1500N R34/1100U BCFG SCT002 00/M00 Q1027 NOSIG
Sporadisk dimma, Delvis molnigt
Sporadisk dimma
Delvis molnigt
  Visa detaljer för Zürich Airport
Avstånd från stationen: S 1749kmLIRF - Rome Airport (Fiumicino - Leonardo da Vinci)
Uppdaterad: 2021-10-24 08:50
Ej aktuell
 Vind från NNO
Vind: NNO 15 km/h
Temperatur: 16°C
Daggpunkt: 11°C
Luftfuktighet: 72%
Barometer: 1020 hPa
Summering: Klart
Sikt: mer än 10 km
2021/10/24 06:50 LIRF 240650Z 02008KT CAVOK 16/11 Q1020 NOSIG
Klart
Klart
  Visa detaljer för Rome Airport (Fiumicino - Leonardo da Vinci)
Avstånd från stationen: SO 2679kmLTAI - Antalya
Uppdaterad: 2021-10-24 09:20
 Vind från SV
Vind: SV 7 km/h
Temperatur: 22°C
Daggpunkt: 13°C
Luftfuktighet: 57%
Barometer: 1019 hPa
Summering: Klart
Sikt: mer än 10 km
2021/10/24 07:20 LTAI 240720Z 23004KT 190V280 CAVOK 22/13 Q1019 NOSIG
Klart
Klart
  Visa detaljer för Antalya
Avstånd från stationen: VSV 6074kmKJFK - New Your (JFK)
Uppdaterad: 2021-10-24 09:51
 Vind från VNV
Vind: VNV 17 km/h
Temperatur: 10°C
Vindavkylning: 8°C
Daggpunkt: 6°C
Luftfuktighet: 76%
Barometer: 1019.3 hPa
Moln: Några få moln
Sikt: 16 km
Molninformation: Några få moln 1524 m
2021/10/24 07:51 KJFK 240751Z 30009KT 10SM FEW050 10/06 A3010 RMK AO2 SLP192 T01000056
Några få moln
Några få moln
  Visa detaljer för New Your (JFK)
Avstånd från stationen: VSV 8848kmKLAX - Los Angeles International Airport
Uppdaterad: 2021-10-24 08:53
Ej aktuell
 
2021/10/24 06:53

  Visa detaljer för Los Angeles International Airport
Avstånd från stationen: SO 4968kmOMDB - Dubai International Airport
Uppdaterad: 2021-10-24 09:00
 Vind från VNV
Vind: VNV 9 km/h
Temperatur: 32°C
Värmeindex: 34°C
Daggpunkt: 20°C
Luftfuktighet: 49%
Barometer: 1012 hPa
Moln: Några få moln
Sikt: 10 km
Molninformation: Några få moln 1067 m
2021/10/24 07:00 OMDB 240700Z 30005KT 270V340 9999 FEW035 32/20 Q1012 NOSIG
Några få moln
Några få moln
  Visa detaljer för Dubai International Airport
Avstånd från stationen: OSO 8570kmRJTT - Tokyo International Airport
Uppdaterad: 2021-10-24 09:00
 
2021/10/24 07:00

  Visa detaljer för Tokyo International Airport
Avstånd från stationen: OSO 7125kmZBAA - Peking (Beijing Capital)
Uppdaterad: 2021-10-24 09:00
 Vind från S
Vind: S 11 km/h
Temperatur: 17°C
Daggpunkt: 4°C
Luftfuktighet: 42%
Barometer: 1022 hPa
Summering: Klart
Sikt: mer än 10 km
2021/10/24 07:00 ZBAA 240700Z 17003MPS 140V200 CAVOK 17/04 Q1022 NOSIG
Klart
Klart
  Visa detaljer för Peking (Beijing Capital)
VÄDER KURIOSA -  ExtremesThe highest temperature ever recorded in the United States was 134 degrees F at Greenland Ranch in Death Valley, California.